Terminal Aerodrome Forecast
Issued by NWS Upton, NY

Home | Current Version | Previous Version | Text Only | Print | Product List | Glossary On
Versions: 1 2 3 4 5 6 7 8 9 10 11 12 13 14 15 16 17 18 19 20 21 22 23 24 25 26 27 28 29
000
FTUS41 KOKX 041637 AAD
TAFLGA
TAF AMD
KLGA 041637Z 0417/0512 19010KT P6SM FEW070
     FM041800 19013G21KT P6SM FEW080 SCT250
     FM042200 19016G24KT P6SM FEW080 SCT250
     FM050200 20013KT P6SM FEW070 SCT250
     FM050700 22009KT P6SM FEW070 SCT250
     FM050900 24007KT P6SM SCT070 SCT150 BKN250=

USA.gov is the U.S. government's official web portal to all federal, state and local government web resources and services.